createdAt,value
2018-08-23T00:00:34.693Z,5.20
2018-08-23T00:01:34.881Z,5.50
2018-08-23T00:02:35.056Z,5.00
2018-08-23T00:03:35.254Z,5.20
2018-08-23T00:04:35.415Z,5.70
2018-08-23T00:05:35.590Z,5.70
2018-08-23T00:06:35.770Z,5.70
2018-08-23T00:07:35.952Z,5.00
2018-08-23T00:08:36.133Z,6.40
2018-08-23T00:09:36.324Z,5.20
2018-08-23T00:10:36.505Z,5.10
2018-08-23T00:11:36.675Z,7.60
2018-08-23T00:12:36.849Z,5.70
2018-08-23T00:13:37.023Z,5.30
2018-08-23T00:14:37.219Z,5.30
2018-08-23T00:15:37.376Z,5.40
2018-08-23T00:16:37.596Z,5.60
2018-08-23T00:17:37.730Z,5.70
2018-08-23T00:18:37.903Z,6.00
2018-08-23T00:19:38.080Z,5.40
2018-08-23T00:20:38.259Z,5.30
2018-08-23T00:21:38.432Z,5.30
2018-08-23T00:22:38.606Z,5.50
2018-08-23T00:23:38.777Z,5.60
2018-08-23T00:24:38.950Z,5.80
2018-08-23T00:25:39.127Z,6.80
2018-08-23T00:26:39.306Z,5.70
2018-08-23T00:27:39.474Z,5.70
2018-08-23T00:28:39.646Z,6.60
2018-08-23T00:29:39.822Z,5.40
2018-08-23T00:30:39.999Z,6.20
2018-08-23T00:31:40.175Z,5.10
2018-08-23T00:32:40.346Z,5.60
2018-08-23T00:33:40.525Z,7.20
2018-08-23T00:34:40.694Z,5.50
2018-08-23T00:35:40.913Z,5.40
2018-08-23T00:36:41.060Z,6.50
2018-08-23T00:37:41.234Z,6.30
2018-08-23T00:38:41.413Z,5.90
2018-08-23T00:39:41.583Z,5.80
2018-08-23T00:40:41.767Z,6.90
2018-08-23T00:41:41.932Z,6.00
2018-08-23T00:42:42.110Z,5.80
2018-08-23T00:43:42.294Z,6.00
2018-08-23T00:44:42.462Z,5.30
2018-08-23T00:45:42.645Z,6.50
2018-08-23T00:46:42.825Z,6.30
2018-08-23T00:47:43.006Z,5.90
2018-08-23T00:48:43.183Z,5.60
2018-08-23T00:49:43.363Z,6.70
2018-08-23T00:50:43.540Z,6.40
2018-08-23T00:51:43.712Z,5.60
2018-08-23T00:52:43.888Z,5.40
2018-08-23T00:53:44.068Z,5.50
2018-08-23T00:54:44.247Z,5.60
2018-08-23T00:55:44.434Z,6.20
2018-08-23T00:56:44.603Z,6.10
2018-08-23T00:57:44.780Z,6.30
2018-08-23T00:58:44.959Z,6.60
2018-08-23T00:59:45.135Z,6.10
2018-08-23T01:00:45.304Z,5.50
2018-08-23T01:01:45.479Z,5.50
2018-08-23T01:02:45.655Z,6.10
2018-08-23T01:03:45.835Z,6.00
2018-08-23T01:04:46.012Z,5.80
2018-08-23T01:05:46.190Z,6.70
2018-08-23T01:06:46.373Z,5.70
2018-08-23T01:07:46.554Z,5.70
2018-08-23T01:08:46.726Z,5.90
2018-08-23T01:09:46.907Z,5.40
2018-08-23T01:10:47.079Z,5.80
2018-08-23T01:11:47.251Z,6.20
2018-08-23T01:12:47.428Z,5.60
2018-08-23T01:13:47.601Z,5.90
2018-08-23T01:14:47.781Z,5.70
2018-08-23T01:15:47.960Z,5.50
2018-08-23T01:16:48.148Z,6.60
2018-08-23T01:17:48.322Z,5.70
2018-08-23T01:18:48.492Z,6.20
2018-08-23T01:19:48.662Z,6.00
2018-08-23T01:20:48.845Z,6.00
2018-08-23T01:21:49.021Z,6.10
2018-08-23T01:22:49.200Z,6.60
2018-08-23T01:23:49.373Z,6.00
2018-08-23T01:24:49.554Z,5.90
2018-08-23T01:25:49.725Z,6.00
2018-08-23T01:26:49.904Z,6.20
2018-08-23T01:27:50.092Z,6.20
2018-08-23T01:28:50.277Z,5.80
2018-08-23T01:29:50.450Z,6.10
2018-08-23T01:30:50.626Z,6.00
2018-08-23T01:31:50.806Z,7.50
2018-08-23T01:32:50.980Z,6.80
2018-08-23T01:33:51.165Z,6.20
2018-08-23T01:34:51.338Z,6.00
2018-08-23T01:35:51.517Z,5.90
2018-08-23T01:36:51.696Z,5.80
2018-08-23T01:37:51.866Z,5.80
2018-08-23T01:38:52.049Z,6.30
2018-08-23T01:39:52.230Z,6.20
2018-08-23T01:40:52.405Z,6.30
2018-08-23T01:41:52.586Z,6.40
2018-08-23T01:42:52.766Z,6.50
2018-08-23T01:43:52.959Z,6.50
2018-08-23T01:44:53.138Z,6.10
2018-08-23T01:45:53.321Z,6.20
2018-08-23T01:46:53.492Z,6.50
2018-08-23T01:47:53.665Z,6.20
2018-08-23T01:48:53.851Z,5.90
2018-08-23T01:49:54.025Z,6.20
2018-08-23T01:50:54.201Z,6.10
2018-08-23T01:51:54.374Z,6.90
2018-08-23T01:52:54.549Z,7.40
2018-08-23T01:53:54.735Z,5.70
2018-08-23T01:54:54.912Z,6.20
2018-08-23T01:55:55.103Z,6.20
2018-08-23T01:56:55.275Z,6.50
2018-08-23T01:57:55.447Z,6.40
2018-08-23T01:58:55.625Z,5.70
2018-08-23T01:59:55.836Z,6.30
2018-08-23T02:00:55.977Z,5.80
2018-08-23T02:01:56.156Z,6.40
2018-08-23T02:02:56.323Z,6.30
2018-08-23T02:03:56.497Z,6.20
2018-08-23T02:04:56.681Z,7.10
2018-08-23T02:05:56.869Z,6.00
2018-08-23T02:06:57.045Z,5.60
2018-08-23T02:07:57.225Z,6.00
2018-08-23T02:08:57.403Z,6.50
2018-08-23T02:09:57.575Z,6.20
2018-08-23T02:10:57.749Z,6.50
2018-08-23T02:11:57.942Z,6.70
2018-08-23T02:12:58.121Z,6.20
2018-08-23T02:13:58.298Z,6.20
2018-08-23T02:14:58.477Z,6.30
2018-08-23T02:15:58.659Z,6.20
2018-08-23T02:16:58.834Z,6.40
2018-08-23T02:17:59.009Z,6.30
2018-08-23T02:18:59.190Z,6.40
2018-08-23T02:19:59.363Z,6.60
2018-08-23T02:20:59.542Z,5.90
2018-08-23T02:21:59.718Z,6.00
2018-08-23T02:22:59.891Z,5.90
2018-08-23T02:24:00.072Z,6.30
2018-08-23T02:25:00.246Z,6.60
2018-08-23T02:26:00.424Z,7.30
2018-08-23T02:27:00.606Z,6.60
2018-08-23T02:28:00.785Z,6.60
2018-08-23T02:29:00.966Z,6.50
2018-08-23T02:30:01.149Z,6.50
2018-08-23T02:31:01.318Z,6.80
2018-08-23T02:32:01.492Z,7.50
2018-08-23T02:33:01.665Z,6.20
2018-08-23T02:34:01.842Z,6.10
2018-08-23T02:35:02.010Z,6.40
2018-08-23T02:36:02.201Z,6.40
2018-08-23T02:37:02.376Z,6.40
2018-08-23T02:38:02.695Z,7.30
2018-08-23T02:39:02.728Z,5.80
2018-08-23T02:40:02.896Z,6.50
2018-08-23T02:41:03.068Z,6.80
2018-08-23T02:42:03.242Z,6.50
2018-08-23T02:43:03.413Z,6.30
2018-08-23T02:44:03.585Z,5.80
2018-08-23T02:45:03.754Z,6.40
2018-08-23T02:46:03.925Z,6.60
2018-08-23T02:47:04.105Z,6.80
2018-08-23T02:48:04.285Z,6.90
2018-08-23T02:49:04.465Z,7.00
2018-08-23T02:50:04.647Z,6.90
2018-08-23T02:51:04.813Z,6.50
2018-08-23T02:52:05.000Z,7.40
2018-08-23T02:53:05.181Z,6.30
2018-08-23T02:54:05.371Z,6.00
2018-08-23T02:55:05.552Z,6.30
2018-08-23T02:56:05.730Z,6.60
2018-08-23T02:57:05.912Z,6.50
2018-08-23T02:58:06.105Z,6.30
2018-08-23T02:59:06.280Z,7.00
2018-08-23T03:00:06.462Z,6.70
2018-08-23T03:01:06.635Z,6.40
2018-08-23T03:02:06.811Z,6.80
2018-08-23T03:03:06.995Z,7.30
2018-08-23T03:04:07.165Z,6.90
2018-08-23T03:05:07.344Z,7.10
2018-08-23T03:06:07.518Z,7.70
2018-08-23T03:07:07.696Z,7.30
2018-08-23T03:08:07.875Z,7.20
2018-08-23T03:09:08.047Z,7.70
2018-08-23T03:10:08.232Z,7.30
2018-08-23T03:11:08.405Z,7.20
2018-08-23T03:12:08.590Z,8.30
2018-08-23T03:13:08.765Z,7.10
2018-08-23T03:14:09.080Z,8.20
2018-08-23T03:15:09.110Z,7.40
2018-08-23T03:16:09.283Z,7.50
2018-08-23T03:17:09.464Z,7.00
2018-08-23T03:18:09.651Z,7.40
2018-08-23T03:19:09.829Z,7.50
2018-08-23T03:20:10.002Z,8.10
2018-08-23T03:21:10.176Z,7.70
2018-08-23T03:22:10.381Z,7.60
2018-08-23T03:23:10.560Z,7.70
2018-08-23T03:24:10.751Z,8.60
2018-08-23T03:25:10.925Z,7.10
2018-08-23T03:26:11.099Z,7.70
2018-08-23T03:27:11.272Z,7.50
2018-08-23T03:28:11.455Z,8.20
2018-08-23T03:29:11.633Z,8.40
2018-08-23T03:30:11.801Z,7.90
2018-08-23T03:31:11.975Z,7.60
2018-08-23T03:32:12.158Z,7.80
2018-08-23T03:33:12.325Z,7.70
2018-08-23T03:34:12.498Z,7.70
2018-08-23T03:35:12.673Z,7.10
2018-08-23T03:36:12.845Z,7.50
2018-08-23T03:37:13.019Z,7.90
2018-08-23T03:38:13.195Z,7.40
2018-08-23T03:39:13.377Z,8.10
2018-08-23T03:40:13.553Z,7.60
2018-08-23T03:41:13.726Z,7.40
2018-08-23T03:42:13.898Z,7.00
2018-08-23T03:43:14.073Z,7.60
2018-08-23T03:44:14.247Z,7.40
2018-08-23T03:45:14.624Z,7.60
2018-08-23T03:46:14.583Z,6.80
2018-08-23T03:47:14.769Z,7.00
2018-08-23T03:48:14.946Z,7.30
2018-08-23T03:49:15.119Z,6.90
2018-08-23T03:50:15.300Z,6.80
2018-08-23T03:51:15.475Z,7.10
2018-08-23T03:52:15.658Z,6.80
2018-08-23T03:53:15.834Z,7.00
2018-08-23T03:54:16.023Z,6.40
2018-08-23T03:55:16.196Z,7.40
2018-08-23T03:56:16.373Z,7.00
2018-08-23T03:57:16.554Z,7.10
2018-08-23T03:58:16.729Z,6.90
2018-08-23T03:59:16.905Z,7.00
2018-08-23T04:00:17.076Z,7.00
2018-08-23T04:01:17.257Z,7.40
2018-08-23T04:02:17.439Z,7.10
2018-08-23T04:03:17.621Z,7.20
2018-08-23T04:04:17.812Z,7.20
2018-08-23T04:05:17.997Z,8.50
2018-08-23T04:06:18.167Z,6.90
2018-08-23T04:07:18.342Z,7.50
2018-08-23T04:08:18.517Z,7.30
2018-08-23T04:09:18.698Z,8.90
2018-08-23T04:10:18.875Z,7.10
2018-08-23T04:11:19.062Z,7.00
2018-08-23T04:12:19.231Z,6.90
2018-08-23T04:13:19.407Z,7.30
2018-08-23T04:14:19.588Z,7.00
2018-08-23T04:15:19.805Z,7.60
2018-08-23T04:16:19.999Z,7.20
2018-08-23T04:17:20.145Z,7.50
2018-08-23T04:18:20.316Z,7.60
2018-08-23T04:19:20.488Z,6.60
2018-08-23T04:20:20.664Z,7.10
2018-08-23T04:21:20.846Z,7.50
2018-08-23T04:22:21.018Z,6.60
2018-08-23T04:23:21.193Z,7.10
2018-08-23T04:24:21.367Z,7.00
2018-08-23T04:25:21.545Z,7.30
2018-08-23T04:26:21.726Z,7.70
2018-08-23T04:27:21.912Z,7.10
2018-08-23T04:28:22.079Z,7.10
2018-08-23T04:29:22.244Z,7.00
2018-08-23T04:30:22.437Z,7.50
2018-08-23T04:31:22.614Z,8.10
2018-08-23T04:32:22.795Z,9.00
2018-08-23T04:33:22.974Z,7.20
2018-08-23T04:34:23.163Z,7.90
2018-08-23T04:35:23.356Z,8.60
2018-08-23T04:36:23.527Z,7.30
2018-08-23T04:37:23.707Z,7.40
2018-08-23T04:38:23.876Z,7.30
2018-08-23T04:39:26.502Z,8.00
2018-08-23T04:40:24.665Z,7.70
2018-08-23T04:41:24.360Z,7.50
2018-08-23T04:42:24.540Z,8.10
2018-08-23T04:43:24.783Z,7.70
2018-08-23T04:44:24.898Z,7.70
2018-08-23T04:45:25.079Z,9.20
2018-08-23T04:46:25.267Z,8.00
2018-08-23T04:47:27.582Z,8.50
2018-08-23T04:48:25.573Z,7.90
2018-08-23T04:49:25.754Z,8.00
2018-08-23T04:50:25.929Z,11.60
2018-08-23T04:51:27.260Z,8.40
2018-08-23T04:52:27.583Z,11.10
2018-08-23T04:53:27.937Z,12.30
2018-08-23T04:54:28.583Z,10.70
2018-08-23T04:55:26.750Z,10.50
2018-08-23T04:56:30.492Z,8.30
2018-08-23T04:57:28.327Z,9.60
2018-08-23T04:58:28.853Z,9.00
2018-08-23T04:59:28.400Z,8.90
2018-08-23T05:00:28.109Z,9.00
2018-08-23T05:01:27.835Z,8.00
2018-08-23T05:02:27.914Z,8.50
2018-08-23T05:03:30.489Z,8.30
2018-08-23T05:04:29.516Z,8.60
2018-08-23T05:05:28.736Z,8.30
2018-08-23T05:06:30.236Z,8.90
2018-08-23T05:07:29.613Z,8.90
2018-08-23T05:08:28.885Z,9.10
2018-08-23T05:09:31.051Z,8.30
2018-08-23T05:10:30.269Z,9.80
2018-08-23T05:11:29.992Z,8.50
2018-08-23T05:12:30.473Z,8.50
2018-08-23T05:13:29.700Z,9.50
2018-08-23T05:14:29.887Z,10.00
2018-08-23T05:15:30.318Z,10.00
2018-08-23T05:16:30.238Z,8.80
2018-08-23T05:17:30.307Z,9.10
2018-08-23T05:18:30.515Z,10.30
2018-08-23T05:19:30.713Z,9.90
2018-08-23T05:20:33.398Z,9.70
2018-08-23T05:21:33.452Z,10.90
2018-08-23T05:22:31.785Z,9.00
2018-08-23T05:23:31.347Z,9.10
2018-08-23T05:24:31.546Z,9.10
2018-08-23T05:25:31.727Z,10.30
2018-08-23T05:26:31.971Z,9.80
2018-08-23T05:27:32.024Z,10.20
2018-08-23T05:28:32.237Z,9.90
2018-08-23T05:29:32.610Z,8.80
2018-08-23T05:30:32.555Z,8.90
2018-08-23T05:31:33.359Z,9.00
2018-08-23T05:32:33.061Z,9.10
2018-08-23T05:33:33.133Z,9.10
2018-08-23T05:34:33.358Z,9.60
2018-08-23T05:35:33.373Z,9.10
2018-08-23T05:36:33.555Z,9.80
2018-08-23T05:37:35.807Z,10.90
2018-08-23T05:38:33.846Z,8.70
2018-08-23T05:39:34.134Z,9.40
2018-08-23T05:40:34.236Z,10.30
2018-08-23T05:41:34.278Z,9.90
2018-08-23T05:42:34.452Z,9.30
2018-08-23T05:43:34.624Z,9.10
2018-08-23T05:44:34.815Z,8.80
2018-08-23T05:45:34.990Z,8.20
2018-08-23T05:46:35.174Z,9.70
2018-08-23T05:47:35.382Z,10.20
2018-08-23T05:48:35.540Z,9.50
2018-08-23T05:49:35.714Z,9.60
2018-08-23T05:50:35.882Z,9.50
2018-08-23T05:51:36.070Z,8.80
2018-08-23T05:52:36.243Z,9.80
2018-08-23T05:53:36.573Z,8.80
2018-08-23T05:54:36.822Z,10.00
2018-08-23T05:55:36.751Z,13.20
2018-08-23T05:56:36.932Z,9.40
2018-08-23T05:57:37.107Z,9.40
2018-08-23T05:58:37.278Z,9.70
2018-08-23T05:59:37.466Z,11.40
2018-08-23T06:00:37.645Z,10.90
2018-08-23T06:01:37.836Z,9.80
2018-08-23T06:02:38.036Z,9.30
2018-08-23T06:03:38.189Z,9.60
2018-08-23T06:04:38.360Z,9.40
2018-08-23T06:05:38.542Z,9.40
2018-08-23T06:06:38.721Z,9.80
2018-08-23T06:07:38.909Z,10.00
2018-08-23T06:08:39.086Z,9.40
2018-08-23T06:09:39.261Z,10.10
2018-08-23T06:10:39.904Z,9.60
2018-08-23T06:11:40.093Z,9.70
2018-08-23T06:12:39.849Z,9.60
2018-08-23T06:13:40.615Z,8.60
2018-08-23T06:14:40.634Z,9.30
2018-08-23T06:15:41.753Z,9.40
2018-08-23T06:16:40.432Z,9.80
2018-08-23T06:17:40.616Z,9.80
2018-08-23T06:18:41.108Z,9.50
2018-08-23T06:19:40.979Z,9.00
2018-08-23T06:20:41.040Z,9.70
2018-08-23T06:21:41.218Z,10.50
2018-08-23T06:22:41.394Z,9.70
2018-08-23T06:23:41.584Z,9.70
2018-08-23T06:24:41.765Z,10.80
2018-08-23T06:25:41.949Z,11.10
2018-08-23T06:26:42.128Z,10.30
2018-08-23T06:27:42.324Z,13.20
2018-08-23T06:28:42.579Z,10.20
2018-08-23T06:29:42.870Z,9.30
2018-08-23T06:30:42.999Z,9.10
2018-08-23T06:31:43.076Z,9.50
2018-08-23T06:32:43.268Z,9.80
2018-08-23T06:33:43.511Z,9.00
2018-08-23T06:34:43.642Z,10.10
2018-08-23T06:35:43.916Z,8.50
2018-08-23T06:36:44.002Z,8.70
2018-08-23T06:37:44.178Z,9.70
2018-08-23T06:38:44.422Z,9.10
2018-08-23T06:39:44.561Z,8.80
2018-08-23T06:40:44.794Z,10.30
2018-08-23T06:41:44.950Z,9.10
2018-08-23T06:42:45.122Z,9.30
2018-08-23T06:43:45.300Z,10.80
2018-08-23T06:44:45.483Z,9.70
2018-08-23T06:45:45.680Z,9.10
2018-08-23T06:46:45.853Z,8.60
2018-08-23T06:47:46.044Z,9.20
2018-08-23T06:48:46.270Z,9.90
2018-08-23T06:49:46.415Z,9.00
2018-08-23T06:50:47.655Z,8.60
2018-08-23T06:51:48.155Z,10.30
2018-08-23T06:52:48.260Z,9.20
2018-08-23T06:53:50.062Z,11.00
2018-08-23T06:54:49.317Z,10.50
2018-08-23T06:55:49.395Z,9.50
2018-08-23T06:56:47.580Z,9.50
2018-08-23T06:57:47.819Z,9.60
2018-08-23T06:58:47.888Z,9.20
2018-08-23T06:59:48.067Z,8.90
2018-08-23T07:00:48.279Z,11.50
2018-08-23T07:01:48.465Z,9.80
2018-08-23T07:02:48.649Z,8.50
2018-08-23T07:03:48.881Z,8.70
2018-08-23T07:04:49.030Z,9.20
2018-08-23T07:05:49.226Z,8.50
2018-08-23T07:06:49.479Z,8.50
2018-08-23T07:07:49.599Z,8.40
2018-08-23T07:08:50.230Z,8.20
2018-08-23T07:09:49.918Z,8.00
2018-08-23T07:10:50.125Z,8.60
2018-08-23T07:11:50.419Z,8.70
2018-08-23T07:12:50.487Z,7.80
2018-08-23T07:13:50.545Z,9.40
2018-08-23T07:14:50.893Z,9.00
2018-08-23T07:15:51.217Z,8.70
2018-08-23T07:16:51.155Z,9.80
2018-08-23T07:17:51.390Z,8.40
2018-08-23T07:18:51.468Z,9.70
2018-08-23T07:19:51.653Z,9.70
2018-08-23T07:20:51.894Z,8.30
2018-08-23T07:21:53.052Z,11.20
2018-08-23T07:22:52.127Z,9.30
2018-08-23T07:23:52.303Z,7.90
2018-08-23T07:24:52.607Z,8.10
2018-08-23T07:25:52.607Z,7.50
2018-08-23T07:26:52.823Z,9.40
2018-08-23T07:27:52.977Z,7.70
2018-08-23T07:28:53.171Z,8.40
2018-08-23T07:29:53.361Z,7.60
2018-08-23T07:30:53.555Z,9.40
2018-08-23T07:31:53.762Z,8.10
2018-08-23T07:32:54.229Z,7.80
2018-08-23T07:33:54.080Z,7.60
2018-08-23T07:34:55.008Z,7.90
2018-08-23T07:35:55.268Z,7.00
2018-08-23T07:36:54.513Z,7.90
2018-08-23T07:37:54.704Z,7.10
2018-08-23T07:38:54.892Z,6.90
2018-08-23T07:39:55.088Z,6.70
2018-08-23T07:40:55.285Z,7.10
2018-08-23T07:41:55.472Z,7.50
2018-08-23T07:42:55.692Z,6.90
2018-08-23T07:43:55.872Z,6.90
2018-08-23T07:44:56.028Z,6.20
2018-08-23T07:45:56.215Z,9.00
2018-08-23T07:46:56.396Z,7.80
2018-08-23T07:47:56.584Z,7.30
2018-08-23T07:48:56.882Z,6.50
2018-08-23T07:49:56.923Z,7.90
2018-08-23T07:50:57.101Z,8.50
2018-08-23T07:51:57.284Z,8.10
2018-08-23T07:52:57.553Z,7.80
2018-08-23T07:53:57.661Z,7.50
2018-08-23T07:54:57.844Z,7.50
2018-08-23T07:55:58.020Z,7.70
2018-08-23T07:56:58.206Z,7.60
2018-08-23T07:57:58.387Z,9.00
2018-08-23T07:58:58.566Z,7.50
2018-08-23T07:59:58.744Z,7.90
2018-08-23T08:00:58.962Z,7.50
2018-08-23T08:01:59.107Z,6.80
2018-08-23T08:02:59.286Z,7.10
2018-08-23T08:03:59.497Z,6.70
2018-08-23T08:04:59.666Z,7.40
2018-08-23T08:05:59.849Z,8.20
2018-08-23T08:07:00.035Z,7.00
2018-08-23T08:08:00.224Z,7.00
2018-08-23T08:09:00.411Z,6.80
2018-08-23T08:10:00.591Z,6.80
2018-08-23T08:11:00.775Z,8.90
2018-08-23T08:12:00.970Z,6.90
2018-08-23T08:13:01.158Z,6.10
2018-08-23T08:14:01.341Z,6.70
2018-08-23T08:15:01.683Z,6.00
2018-08-23T08:16:01.725Z,6.30
2018-08-23T08:17:01.906Z,6.10
2018-08-23T08:18:02.095Z,6.10
2018-08-23T08:19:02.278Z,5.60
2018-08-23T08:20:02.470Z,6.20
2018-08-23T08:21:02.778Z,6.50
2018-08-23T08:22:02.850Z,6.50
2018-08-23T08:23:03.039Z,6.10
2018-08-23T08:24:03.234Z,6.40
2018-08-23T08:25:03.427Z,6.90
2018-08-23T08:26:03.606Z,6.10
2018-08-23T08:27:03.820Z,6.00
2018-08-23T08:28:03.984Z,5.90
2018-08-23T08:29:04.580Z,6.30
2018-08-23T08:30:04.384Z,6.90
2018-08-23T08:31:04.575Z,7.10
2018-08-23T08:32:04.762Z,7.00
2018-08-23T08:33:05.014Z,6.40
2018-08-23T08:34:06.004Z,6.00
2018-08-23T08:35:05.301Z,6.50
2018-08-23T08:36:05.491Z,6.20
2018-08-23T08:37:05.684Z,6.40
2018-08-23T08:38:05.914Z,6.90
2018-08-23T08:39:06.112Z,5.80
2018-08-23T08:40:06.402Z,6.30
2018-08-23T08:41:06.502Z,7.00
2018-08-23T08:42:06.743Z,5.80
2018-08-23T08:43:07.757Z,6.00
2018-08-23T08:44:07.067Z,6.80
2018-08-23T08:45:07.364Z,7.00
2018-08-23T08:46:08.051Z,6.60
2018-08-23T08:47:07.718Z,26.10
2018-08-23T08:48:07.794Z,6.30
2018-08-23T08:49:08.042Z,5.90
2018-08-23T08:50:08.309Z,5.80
2018-08-23T08:51:08.306Z,5.70
2018-08-23T08:52:08.544Z,5.80
2018-08-23T08:53:09.253Z,6.00
2018-08-23T08:54:08.940Z,5.20
2018-08-23T08:55:09.298Z,5.00
2018-08-23T08:56:09.485Z,5.30
2018-08-23T08:57:09.631Z,5.30
2018-08-23T08:58:09.774Z,5.30
2018-08-23T08:59:09.630Z,4.90
2018-08-23T09:00:10.081Z,5.10
2018-08-23T09:01:10.284Z,5.50
2018-08-23T09:02:10.483Z,5.80
2018-08-23T09:03:13.368Z,4.80
2018-08-23T09:04:11.945Z,4.70
2018-08-23T09:05:11.344Z,4.20
2018-08-23T09:06:11.202Z,4.30
2018-08-23T09:07:11.613Z,4.70
2018-08-23T09:08:11.707Z,6.00
2018-08-23T09:09:12.137Z,4.20
2018-08-23T09:10:12.231Z,4.40
2018-08-23T09:11:12.290Z,4.40
2018-08-23T09:12:12.443Z,4.30
2018-08-23T09:13:12.388Z,4.40
2018-08-23T09:14:12.571Z,4.90
2018-08-23T09:15:12.778Z,4.40
2018-08-23T09:16:13.037Z,4.30
2018-08-23T09:17:13.067Z,4.60
2018-08-23T09:18:13.253Z,4.70
2018-08-23T09:19:13.449Z,4.20
2018-08-23T09:20:13.638Z,4.30
2018-08-23T09:21:13.831Z,4.50
2018-08-23T09:22:14.087Z,4.40
2018-08-23T09:23:14.262Z,4.30
2018-08-23T09:24:14.462Z,4.70
2018-08-23T09:25:14.698Z,4.40
2018-08-23T09:26:14.847Z,4.00
2018-08-23T09:27:15.141Z,3.90
2018-08-23T09:28:15.265Z,4.20
2018-08-23T09:29:15.475Z,5.00
2018-08-23T09:30:15.670Z,4.20
2018-08-23T09:31:15.925Z,3.80
2018-08-23T09:32:16.093Z,4.00
2018-08-23T09:33:16.286Z,3.80
2018-08-23T09:34:16.488Z,4.30
2018-08-23T09:35:16.668Z,4.20
2018-08-23T09:36:16.852Z,4.10
2018-08-23T09:37:17.044Z,4.10
2018-08-23T09:38:17.262Z,3.90
2018-08-23T09:39:17.424Z,3.90
2018-08-23T09:40:17.760Z,3.90
2018-08-23T09:41:17.883Z,3.20
2018-08-23T09:42:18.076Z,4.20
2018-08-23T09:43:20.199Z,4.10
2018-08-23T09:44:19.824Z,3.70
2018-08-23T09:45:19.049Z,3.80
2018-08-23T09:46:19.048Z,3.80
2018-08-23T09:47:19.970Z,4.10
2018-08-23T09:48:19.085Z,3.90
2018-08-23T09:49:20.636Z,4.30
2018-08-23T09:50:20.790Z,3.80
2018-08-23T09:51:22.198Z,3.90
2018-08-23T09:52:21.267Z,5.00
2018-08-23T09:53:21.190Z,3.80
2018-08-23T09:54:21.020Z,3.60
2018-08-23T09:55:21.288Z,3.90
2018-08-23T09:56:20.692Z,5.30
2018-08-23T09:57:20.636Z,4.10
2018-08-23T09:58:23.232Z,3.70
2018-08-23T09:59:21.814Z,3.60
2018-08-23T10:00:24.741Z,4.10
2018-08-23T10:01:21.234Z,4.20
2018-08-23T10:02:21.433Z,3.60
2018-08-23T10:03:21.667Z,4.00
2018-08-23T10:04:22.536Z,4.20
2018-08-23T10:05:22.169Z,4.30
2018-08-23T10:06:22.261Z,3.90
2018-08-23T10:07:22.747Z,4.60
2018-08-23T10:08:22.671Z,3.70
2018-08-23T10:09:23.031Z,3.80
2018-08-23T10:10:23.001Z,4.00
2018-08-23T10:11:23.279Z,4.00
2018-08-23T10:12:23.391Z,4.50
2018-08-23T10:13:23.578Z,3.90
2018-08-23T10:14:23.772Z,3.90
2018-08-23T10:15:24.183Z,4.50
2018-08-23T10:16:24.222Z,4.20
2018-08-23T10:17:24.293Z,3.40
2018-08-23T10:18:24.489Z,4.10
2018-08-23T10:19:24.680Z,4.00
2018-08-23T10:20:24.938Z,4.00
2018-08-23T10:21:25.001Z,3.90
2018-08-23T10:22:25.191Z,4.00
2018-08-23T10:23:25.379Z,3.70
2018-08-23T10:24:25.580Z,3.70
2018-08-23T10:25:25.772Z,3.60
2018-08-23T10:26:31.533Z,3.90
2018-08-23T10:27:29.506Z,3.80
2018-08-23T10:28:27.606Z,3.70
2018-08-23T10:29:28.422Z,3.40
2018-08-23T10:30:29.503Z,3.30
2018-08-23T10:31:26.761Z,3.50
2018-08-23T10:32:26.914Z,3.50
2018-08-23T10:33:27.098Z,3.50
2018-08-23T10:34:27.295Z,3.30
2018-08-23T10:35:27.480Z,3.40
2018-08-23T10:36:27.669Z,3.40
2018-08-23T10:37:27.859Z,3.70
2018-08-23T10:38:28.049Z,3.60
2018-08-23T10:39:28.236Z,3.50
2018-08-23T10:40:28.445Z,4.20
2018-08-23T10:41:28.646Z,3.20
2018-08-23T10:42:28.861Z,3.40
2018-08-23T10:43:29.070Z,3.40
2018-08-23T10:44:29.294Z,3.90
2018-08-23T10:45:29.452Z,3.30
2018-08-23T10:46:29.645Z,3.10
2018-08-23T10:47:29.846Z,3.40
2018-08-23T10:48:30.031Z,3.20
2018-08-23T10:49:30.228Z,3.20
2018-08-23T10:50:30.461Z,3.40
2018-08-23T10:51:30.629Z,3.40
2018-08-23T10:52:30.827Z,3.30
2018-08-23T10:53:31.018Z,3.30
2018-08-23T10:54:31.888Z,3.60
2018-08-23T10:55:32.914Z,3.10
2018-08-23T10:56:31.588Z,3.50
2018-08-23T10:57:31.771Z,2.70
2018-08-23T10:58:31.972Z,2.60
2018-08-23T10:59:32.165Z,2.70
2018-08-23T11:00:32.348Z,2.70
2018-08-23T11:01:32.582Z,2.40
2018-08-23T11:02:32.752Z,2.60
2018-08-23T11:03:32.954Z,2.60
2018-08-23T11:04:33.148Z,2.30
2018-08-23T11:05:33.345Z,3.50
2018-08-23T11:06:33.602Z,3.10
2018-08-23T11:07:33.663Z,2.70
2018-08-23T11:08:33.857Z,2.70
2018-08-23T11:09:34.065Z,3.10
2018-08-23T11:10:34.294Z,3.20
2018-08-23T11:11:34.386Z,3.30
2018-08-23T11:12:34.619Z,3.10
2018-08-23T11:13:34.809Z,2.70
2018-08-23T11:14:35.004Z,2.60
2018-08-23T11:15:35.200Z,3.20
2018-08-23T11:16:35.480Z,3.40
2018-08-23T11:17:36.253Z,3.30
2018-08-23T11:18:36.349Z,4.00
2018-08-23T11:19:36.601Z,3.40
2018-08-23T11:20:40.827Z,4.00
2018-08-23T11:21:38.394Z,3.60
2018-08-23T11:22:37.349Z,4.10
2018-08-23T11:23:38.098Z,3.50
2018-08-23T11:24:37.108Z,3.50
2018-08-23T11:25:37.424Z,3.40
2018-08-23T11:26:37.063Z,3.40
2018-08-23T11:27:37.267Z,3.40
2018-08-23T11:28:37.666Z,2.90
2018-08-23T11:29:37.667Z,2.90
2018-08-23T11:30:37.790Z,2.60
2018-08-23T11:31:41.453Z,3.00
2018-08-23T11:32:41.750Z,2.50
2018-08-23T11:33:38.351Z,3.30
2018-08-23T11:34:38.534Z,3.20
2018-08-23T11:35:38.716Z,2.40
2018-08-23T11:36:38.905Z,2.70
2018-08-23T11:37:39.104Z,2.60
2018-08-23T11:38:39.374Z,2.50
2018-08-23T11:39:39.437Z,2.60
2018-08-23T11:40:39.661Z,2.90
2018-08-23T11:41:39.845Z,3.00
2018-08-23T11:42:40.124Z,3.20
2018-08-23T11:43:40.366Z,3.40
2018-08-23T11:44:40.448Z,3.90
2018-08-23T11:45:40.530Z,3.70
2018-08-23T11:46:40.735Z,3.30
2018-08-23T11:47:40.938Z,2.90
2018-08-23T11:48:41.371Z,3.30
2018-08-23T11:49:42.564Z,2.40
2018-08-23T11:50:41.789Z,2.70
2018-08-23T11:51:42.424Z,4.10
2018-08-23T11:52:43.318Z,3.00
2018-08-23T11:53:43.995Z,2.70
2018-08-23T11:54:43.605Z,3.20
2018-08-23T11:55:43.612Z,2.80
2018-08-23T11:56:43.493Z,3.90
2018-08-23T11:57:43.874Z,2.70
2018-08-23T11:58:44.067Z,3.60
2018-08-23T11:59:44.268Z,2.70
2018-08-23T12:00:44.432Z,3.30
2018-08-23T12:01:44.501Z,3.40
2018-08-23T12:02:45.536Z,3.30
2018-08-23T12:03:47.016Z,3.10
2018-08-23T12:04:45.001Z,2.90
2018-08-23T12:05:45.137Z,4.00
2018-08-23T12:06:44.867Z,3.20
2018-08-23T12:07:44.839Z,3.20
2018-08-23T12:08:45.021Z,2.90
2018-08-23T12:09:45.244Z,3.10
2018-08-23T12:10:45.421Z,3.60
2018-08-23T12:11:45.609Z,4.30
2018-08-23T12:12:45.797Z,3.30
2018-08-23T12:13:45.988Z,4.20
2018-08-23T12:14:46.171Z,3.10
2018-08-23T12:15:46.369Z,3.90
2018-08-23T12:16:49.272Z,3.60
2018-08-23T12:17:47.194Z,3.80
2018-08-23T12:18:47.840Z,3.30
2018-08-23T12:19:47.238Z,3.40
2018-08-23T12:20:47.633Z,3.40
2018-08-23T12:21:48.488Z,4.40
2018-08-23T12:22:49.777Z,5.70
2018-08-23T12:23:48.236Z,3.90
2018-08-23T12:24:47.978Z,3.80
2018-08-23T12:25:48.613Z,3.70
2018-08-23T12:26:49.542Z,3.90
2018-08-23T12:27:48.925Z,5.60
2018-08-23T12:28:48.987Z,4.30
2018-08-23T12:29:49.283Z,4.30
2018-08-23T12:30:49.377Z,4.00
2018-08-23T12:31:49.491Z,4.20
2018-08-23T12:32:50.194Z,5.00
2018-08-23T12:33:49.488Z,4.20
2018-08-23T12:34:49.744Z,4.30
2018-08-23T12:35:49.888Z,4.20
2018-08-23T12:36:50.174Z,4.10
2018-08-23T12:37:50.573Z,4.60
2018-08-23T12:38:50.410Z,3.70
2018-08-23T12:39:50.605Z,4.40
2018-08-23T12:40:50.838Z,5.80
2018-08-23T12:41:51.011Z,4.80
2018-08-23T12:42:51.241Z,4.60
2018-08-23T12:43:51.347Z,5.30
2018-08-23T12:44:51.495Z,4.50
2018-08-23T12:45:51.707Z,4.30
2018-08-23T12:46:51.962Z,5.00
2018-08-23T12:47:52.201Z,4.50
2018-08-23T12:48:52.255Z,4.30
2018-08-23T12:49:53.371Z,4.70
2018-08-23T12:50:52.630Z,4.50
2018-08-23T12:51:52.814Z,4.50
2018-08-23T12:52:52.993Z,4.40
2018-08-23T12:53:53.179Z,5.00
2018-08-23T12:54:53.368Z,4.40
2018-08-23T12:55:53.545Z,4.20
2018-08-23T12:56:53.736Z,4.60
2018-08-23T12:57:53.944Z,4.40
2018-08-23T12:58:54.136Z,4.20
2018-08-23T12:59:54.323Z,4.90
2018-08-23T13:00:54.528Z,4.20
2018-08-23T13:01:54.886Z,4.50
2018-08-23T13:02:55.090Z,4.50
2018-08-23T13:03:55.197Z,4.50
2018-08-23T13:04:55.260Z,4.00
2018-08-23T13:05:55.449Z,4.90
2018-08-23T13:06:55.631Z,4.50
2018-08-23T13:07:55.820Z,3.60
2018-08-23T13:08:56.019Z,4.00
2018-08-23T13:09:56.186Z,4.00
2018-08-23T13:10:56.443Z,4.40
2018-08-23T13:11:56.497Z,4.00
2018-08-23T13:12:56.685Z,4.10
2018-08-23T13:13:56.863Z,4.70
2018-08-23T13:14:57.050Z,3.90
2018-08-23T13:15:57.230Z,4.90
2018-08-23T13:16:57.495Z,4.20
2018-08-23T13:17:57.653Z,4.70
2018-08-23T13:18:57.730Z,4.70
2018-08-23T13:19:57.920Z,4.20